createdAt,value
2018-09-24T00:01:06.486Z,83.00
2018-09-24T00:03:34.882Z,83.00
2018-09-24T00:08:37.978Z,83.60
2018-09-24T00:11:06.631Z,83.30
2018-09-24T00:13:34.940Z,83.50
2018-09-24T00:16:03.344Z,83.00
2018-09-24T00:18:31.710Z,83.60
2018-09-24T00:21:00.137Z,83.60
2018-09-24T00:23:28.462Z,84.00
2018-09-24T00:25:56.802Z,84.40
2018-09-24T00:28:25.239Z,84.50
2018-09-24T00:30:53.568Z,84.30
2018-09-24T00:33:21.991Z,84.20
2018-09-24T00:35:50.325Z,84.80
2018-09-24T00:38:25.077Z,84.20
2018-09-24T00:40:53.508Z,84.40
2018-09-24T00:43:22.654Z,84.40
2018-09-24T00:45:51.022Z,84.40
2018-09-24T00:48:19.434Z,84.20
2018-09-24T00:50:47.820Z,83.90
2018-09-24T00:53:16.153Z,84.00
2018-09-24T00:55:45.481Z,84.10
2018-09-24T00:58:13.827Z,85.30
2018-09-24T01:00:42.258Z,85.00
2018-09-24T01:03:10.662Z,85.60
2018-09-24T01:05:38.980Z,86.00
2018-09-24T01:08:07.342Z,86.00
2018-09-24T01:10:35.839Z,86.40
2018-09-24T01:13:04.203Z,86.40
2018-09-24T01:15:32.597Z,86.10
2018-09-24T01:18:01.465Z,86.60
2018-09-24T01:20:29.740Z,86.40
2018-09-24T01:22:58.032Z,86.30
2018-09-24T01:25:26.345Z,86.30
2018-09-24T01:27:54.710Z,86.30
2018-09-24T01:30:23.199Z,87.20
2018-09-24T01:32:51.541Z,87.90
2018-09-24T01:35:19.938Z,87.50
2018-09-24T01:37:48.316Z,87.30
2018-09-24T01:40:16.696Z,87.10
2018-09-24T01:42:45.023Z,87.40
2018-09-24T01:45:13.390Z,86.80
2018-09-24T01:47:41.754Z,87.10
2018-09-24T01:50:10.162Z,87.40
2018-09-24T01:52:38.516Z,87.60
2018-09-24T01:55:06.901Z,88.10
2018-09-24T01:57:35.227Z,88.00
2018-09-24T02:00:03.707Z,87.30
2018-09-24T02:02:32.112Z,87.50
2018-09-24T02:05:00.496Z,87.30
2018-09-24T02:07:28.841Z,87.70
2018-09-24T02:09:57.405Z,87.50
2018-09-24T02:12:25.749Z,87.40
2018-09-24T02:14:54.074Z,87.60
2018-09-24T02:17:23.217Z,87.70
2018-09-24T02:19:52.102Z,87.70
2018-09-24T02:22:26.226Z,87.30
2018-09-24T02:24:55.305Z,86.90
2018-09-24T02:27:23.723Z,87.10
2018-09-24T02:29:52.097Z,87.20
2018-09-24T02:32:20.662Z,86.90
2018-09-24T02:34:50.192Z,87.00
2018-09-24T02:37:18.759Z,86.90
2018-09-24T02:39:47.233Z,87.00
2018-09-24T02:42:15.640Z,87.10
2018-09-24T02:44:43.964Z,87.80
2018-09-24T02:47:12.447Z,87.30
2018-09-24T02:49:40.850Z,87.30
2018-09-24T02:52:09.194Z,87.10
2018-09-24T02:54:37.496Z,87.70
2018-09-24T02:57:05.886Z,87.90
2018-09-24T02:59:34.276Z,87.20
2018-09-24T03:02:02.639Z,87.30
2018-09-24T03:04:30.964Z,87.30
2018-09-24T03:06:59.255Z,87.10
2018-09-24T03:09:27.609Z,87.40
2018-09-24T03:11:55.910Z,87.50
2018-09-24T03:17:27.536Z,88.10
2018-09-24T03:19:55.877Z,88.20
2018-09-24T03:22:25.776Z,88.00
2018-09-24T03:24:55.266Z,88.20
2018-09-24T03:27:24.370Z,87.60
2018-09-24T03:29:52.699Z,88.10
2018-09-24T03:32:21.036Z,88.50
2018-09-24T03:34:50.439Z,88.80
2018-09-24T03:37:19.849Z,88.50
2018-09-24T03:39:48.212Z,88.70
2018-09-24T03:42:16.586Z,88.40
2018-09-24T03:44:44.985Z,88.10
2018-09-24T03:47:13.348Z,88.10
2018-09-24T03:49:41.758Z,88.10
2018-09-24T03:52:10.073Z,88.10
2018-09-24T03:54:38.459Z,88.00
2018-09-24T03:57:08.804Z,87.70
2018-09-24T03:59:37.143Z,88.20
2018-09-24T04:02:05.573Z,88.20
2018-09-24T04:04:39.395Z,88.10
2018-09-24T04:07:12.985Z,88.10
2018-09-24T04:09:46.612Z,88.00
2018-09-24T04:12:20.447Z,87.90
2018-09-24T04:14:54.189Z,87.80
2018-09-24T04:17:28.032Z,88.20
2018-09-24T04:20:01.715Z,87.90
2018-09-24T04:22:35.504Z,87.50
2018-09-24T04:25:09.289Z,87.90
2018-09-24T04:27:42.891Z,87.90
2018-09-24T04:30:16.562Z,88.20
2018-09-24T04:32:50.335Z,87.80
2018-09-24T04:35:24.931Z,87.80
2018-09-24T04:37:59.345Z,88.00
2018-09-24T04:40:33.996Z,89.30
2018-09-24T04:43:07.764Z,88.70
2018-09-24T04:45:41.608Z,88.20
2018-09-24T04:48:15.768Z,88.00
2018-09-24T04:50:49.624Z,88.00
2018-09-24T04:53:23.309Z,87.80
2018-09-24T04:55:58.059Z,88.10
2018-09-24T04:58:31.998Z,88.40
2018-09-24T05:01:05.720Z,88.30
2018-09-24T05:03:39.773Z,88.50
2018-09-24T05:06:13.704Z,88.50
2018-09-24T05:08:47.463Z,89.00
2018-09-24T05:11:21.096Z,89.10
2018-09-24T05:13:54.876Z,89.10
2018-09-24T05:16:28.544Z,89.10
2018-09-24T05:19:03.213Z,89.30
2018-09-24T05:21:36.973Z,89.10
2018-09-24T05:24:10.626Z,89.00
2018-09-24T05:26:44.470Z,88.90
2018-09-24T05:29:18.072Z,89.50
2018-09-24T05:31:51.772Z,89.60
2018-09-24T05:34:25.552Z,90.00
2018-09-24T05:37:00.116Z,89.70
2018-09-24T05:39:33.790Z,88.80
2018-09-24T05:42:07.533Z,88.70
2018-09-24T05:44:41.293Z,88.40
2018-09-24T05:47:15.076Z,88.50
2018-09-24T05:49:48.838Z,88.30
2018-09-24T05:52:22.714Z,88.40
2018-09-24T05:54:56.572Z,88.60
2018-09-24T05:57:30.333Z,88.70
2018-09-24T06:00:03.955Z,88.50
2018-09-24T06:02:37.740Z,88.40
2018-09-24T06:05:11.513Z,88.50
2018-09-24T06:07:45.427Z,88.40
2018-09-24T06:10:19.211Z,87.70
2018-09-24T06:12:54.002Z,88.00
2018-09-24T06:15:27.732Z,87.60
2018-09-24T06:18:01.441Z,87.10
2018-09-24T06:20:35.269Z,86.40
2018-09-24T06:23:08.985Z,84.10
2018-09-24T06:25:42.573Z,84.00
2018-09-24T06:28:16.227Z,83.20
2018-09-24T06:30:49.963Z,82.40
2018-09-24T06:33:23.737Z,83.00
2018-09-24T06:35:57.324Z,81.50
2018-09-24T06:38:31.044Z,81.20
2018-09-24T06:41:04.855Z,79.80
2018-09-24T06:43:39.387Z,79.90
2018-09-24T06:46:13.211Z,79.40
2018-09-24T06:48:46.985Z,78.80
2018-09-24T06:51:20.688Z,79.20
2018-09-24T06:53:54.377Z,78.50
2018-09-24T06:56:28.147Z,75.50
2018-09-24T06:59:01.972Z,75.00
2018-09-24T07:01:36.857Z,75.20
2018-09-24T07:04:11.497Z,75.50
2018-09-24T07:06:45.258Z,76.00
2018-09-24T07:09:18.864Z,74.20
2018-09-24T07:11:52.668Z,73.60
2018-09-24T07:14:26.353Z,73.70
2018-09-24T07:17:00.191Z,75.00
2018-09-24T07:19:33.966Z,74.40
2018-09-24T07:22:07.657Z,73.40
2018-09-24T07:24:41.356Z,73.30
2018-09-24T07:27:15.110Z,73.30
2018-09-24T07:29:48.834Z,72.30
2018-09-24T07:32:22.433Z,72.80
2018-09-24T07:34:56.104Z,72.40
2018-09-24T07:37:29.738Z,71.20
2018-09-24T07:40:03.452Z,70.60
2018-09-24T07:42:37.220Z,71.40
2018-09-24T07:45:10.813Z,70.50
2018-09-24T07:47:44.661Z,69.40
2018-09-24T07:50:18.322Z,69.20
2018-09-24T07:52:52.158Z,69.90
2018-09-24T07:55:25.897Z,70.10
2018-09-24T07:57:59.447Z,68.60
2018-09-24T08:00:32.964Z,68.20
2018-09-24T08:03:06.648Z,67.40
2018-09-24T08:05:40.328Z,68.50
2018-09-24T08:08:13.454Z,67.10
2018-09-24T08:10:46.553Z,67.80
2018-09-24T08:13:19.664Z,69.80
2018-09-24T08:15:52.604Z,69.90
2018-09-24T08:18:25.850Z,70.50
2018-09-24T08:20:58.903Z,70.30
2018-09-24T08:23:32.895Z,68.10
2018-09-24T08:26:06.135Z,68.90
2018-09-24T08:28:39.119Z,66.30
2018-09-24T08:31:12.106Z,66.90
2018-09-24T08:33:45.078Z,65.20
2018-09-24T08:36:18.253Z,66.20
2018-09-24T08:38:51.467Z,64.50
2018-09-24T08:41:24.533Z,64.40
2018-09-24T08:43:57.695Z,66.30
2018-09-24T08:46:30.660Z,64.80
2018-09-24T08:49:03.772Z,66.50
2018-09-24T08:51:36.688Z,65.20
2018-09-24T08:54:09.844Z,63.10
2018-09-24T08:56:42.899Z,62.70
2018-09-24T08:59:15.948Z,62.80
2018-09-24T09:01:49.204Z,63.20
2018-09-24T09:04:22.131Z,63.10
2018-09-24T09:06:55.249Z,62.90
2018-09-24T09:09:28.298Z,63.80
2018-09-24T09:12:01.522Z,63.10
2018-09-24T09:14:34.546Z,63.80
2018-09-24T09:17:07.494Z,64.90
2018-09-24T09:19:40.627Z,62.70
2018-09-24T09:22:13.562Z,62.10
2018-09-24T09:24:46.752Z,61.70
2018-09-24T09:27:19.985Z,59.10
2018-09-24T09:29:52.935Z,59.00
2018-09-24T09:32:32.598Z,59.00
2018-09-24T09:35:05.677Z,57.90
2018-09-24T09:37:38.794Z,57.20
2018-09-24T09:40:11.809Z,57.20
2018-09-24T09:42:44.914Z,57.40
2018-09-24T09:45:17.869Z,56.80
2018-09-24T09:47:50.994Z,54.80
2018-09-24T09:50:24.225Z,54.30
2018-09-24T09:52:57.251Z,55.20
2018-09-24T09:55:30.291Z,56.20
2018-09-24T09:58:03.310Z,56.80
2018-09-24T10:00:36.438Z,56.40
2018-09-24T10:03:09.616Z,57.00
2018-09-24T10:05:42.625Z,56.00
2018-09-24T10:08:15.672Z,55.10
2018-09-24T10:10:48.736Z,52.20
2018-09-24T10:13:21.758Z,53.60
2018-09-24T10:15:54.732Z,53.80
2018-09-24T10:18:27.854Z,55.00
2018-09-24T10:21:01.099Z,53.90
2018-09-24T10:23:34.117Z,52.20
2018-09-24T10:26:07.120Z,52.20
2018-09-24T10:28:40.173Z,54.20
2018-09-24T10:31:13.142Z,55.70
2018-09-24T10:33:46.206Z,55.40
2018-09-24T10:36:19.416Z,54.30
2018-09-24T10:38:52.588Z,54.00
2018-09-24T10:41:25.795Z,55.00
2018-09-24T10:43:58.733Z,54.40
2018-09-24T10:46:31.736Z,53.30
2018-09-24T10:49:04.844Z,54.70
2018-09-24T10:51:38.060Z,54.30
2018-09-24T10:54:11.090Z,53.40
2018-09-24T10:56:44.112Z,52.20
2018-09-24T10:59:17.293Z,53.50
2018-09-24T11:01:50.300Z,52.90
2018-09-24T11:04:24.352Z,53.60
2018-09-24T11:06:57.386Z,54.10
2018-09-24T11:09:30.463Z,52.20
2018-09-24T11:12:03.558Z,51.30
2018-09-24T11:14:36.816Z,51.40
2018-09-24T11:17:09.975Z,50.80
2018-09-24T11:19:43.090Z,50.80
2018-09-24T11:22:16.184Z,50.10
2018-09-24T11:24:49.361Z,50.00
2018-09-24T11:27:22.615Z,49.80
2018-09-24T11:29:55.816Z,49.80
2018-09-24T11:32:28.881Z,49.70
2018-09-24T11:35:01.949Z,48.60
2018-09-24T11:37:34.920Z,47.30
2018-09-24T11:40:08.236Z,46.90
2018-09-24T11:42:41.219Z,45.60
2018-09-24T11:45:15.314Z,46.20
2018-09-24T11:47:48.198Z,47.50
2018-09-24T11:50:21.205Z,50.30
2018-09-24T11:52:54.200Z,47.20
2018-09-24T11:55:27.281Z,46.50
2018-09-24T11:58:00.260Z,46.70
2018-09-24T12:00:33.381Z,44.20
2018-09-24T12:03:06.281Z,44.90
2018-09-24T12:05:39.469Z,45.60
2018-09-24T12:08:12.663Z,46.30
2018-09-24T12:10:45.892Z,47.20
2018-09-24T12:13:18.980Z,46.70
2018-09-24T12:15:52.145Z,47.80
2018-09-24T12:18:25.282Z,46.80
2018-09-24T12:20:58.412Z,46.60
2018-09-24T12:23:31.832Z,46.60
2018-09-24T12:26:04.982Z,47.20
2018-09-24T12:28:38.039Z,47.80
2018-09-24T12:31:11.088Z,48.60
2018-09-24T12:33:44.189Z,46.90
2018-09-24T12:36:17.363Z,45.50
2018-09-24T12:38:50.555Z,45.30
2018-09-24T12:41:23.771Z,45.20
2018-09-24T12:43:56.963Z,45.50
2018-09-24T12:46:30.196Z,45.10
2018-09-24T12:49:03.115Z,45.50
2018-09-24T12:51:36.187Z,47.20
2018-09-24T12:54:09.181Z,45.70
2018-09-24T12:56:42.332Z,45.20
2018-09-24T12:59:15.424Z,45.40
2018-09-24T13:01:48.580Z,42.50
2018-09-24T13:04:21.775Z,43.50
2018-09-24T13:06:54.941Z,43.60
2018-09-24T13:09:28.040Z,43.80
2018-09-24T13:12:01.265Z,42.60
2018-09-24T13:14:34.262Z,41.10
2018-09-24T13:17:07.555Z,42.10
2018-09-24T13:19:40.542Z,41.80
2018-09-24T13:22:13.692Z,41.80
2018-09-24T13:24:46.920Z,42.20
2018-09-24T13:27:19.919Z,42.70
2018-09-24T13:29:52.871Z,41.70
2018-09-24T13:32:25.924Z,42.60
2018-09-24T13:34:58.936Z,41.70
2018-09-24T13:37:32.090Z,43.20
2018-09-24T13:40:05.148Z,42.10
2018-09-24T13:42:38.156Z,42.80
2018-09-24T13:45:11.344Z,42.80
2018-09-24T13:47:44.515Z,42.70
2018-09-24T13:50:17.524Z,41.60
2018-09-24T13:52:50.493Z,42.70
2018-09-24T13:55:23.627Z,42.70
2018-09-24T13:57:57.642Z,42.70
2018-09-24T14:00:30.712Z,42.90
2018-09-24T14:03:16.452Z,44.80
2018-09-24T14:05:49.623Z,42.80
2018-09-24T14:08:22.803Z,42.20
2018-09-24T14:10:55.981Z,44.50
2018-09-24T14:13:31.052Z,43.90
2018-09-24T14:16:06.164Z,44.00
2018-09-24T14:18:39.370Z,42.90
2018-09-24T14:21:12.622Z,43.00
2018-09-24T14:23:45.633Z,43.90
2018-09-24T14:26:18.730Z,43.00
2018-09-24T14:28:51.980Z,42.10
2018-09-24T14:31:26.221Z,42.30
2018-09-24T14:33:59.228Z,43.80
2018-09-24T14:36:32.333Z,43.60
2018-09-24T14:39:06.590Z,42.50
2018-09-24T14:41:39.635Z,42.20
2018-09-24T14:44:14.783Z,43.40
2018-09-24T14:46:47.939Z,42.90
2018-09-24T14:49:22.010Z,43.10
2018-09-24T14:51:55.116Z,43.00
2018-09-24T14:54:28.263Z,42.90
2018-09-24T14:57:01.489Z,43.10
2018-09-24T14:59:34.676Z,43.00
2018-09-24T15:02:07.744Z,42.60
2018-09-24T15:04:40.989Z,42.80
2018-09-24T15:07:13.963Z,43.40
2018-09-24T15:09:47.020Z,43.50
2018-09-24T15:12:20.076Z,44.00
2018-09-24T15:14:53.054Z,43.20
2018-09-24T15:17:26.161Z,43.70
2018-09-24T15:19:59.451Z,44.00
2018-09-24T15:22:32.616Z,43.40
2018-09-24T15:25:05.629Z,43.30
2018-09-24T15:27:38.806Z,44.30
2018-09-24T15:30:11.976Z,44.30
2018-09-24T15:32:44.976Z,44.60
2018-09-24T15:35:17.983Z,44.90
2018-09-24T15:37:51.068Z,44.30
2018-09-24T15:40:24.176Z,45.80
2018-09-24T15:42:57.215Z,45.60
2018-09-24T15:45:30.201Z,45.30
2018-09-24T15:48:03.251Z,45.60
2018-09-24T15:50:36.246Z,45.00
2018-09-24T15:53:09.313Z,45.40
2018-09-24T15:55:42.367Z,44.80
2018-09-24T15:58:15.394Z,45.30
2018-09-24T16:00:48.607Z,46.00
2018-09-24T16:03:21.820Z,46.40
2018-09-24T16:05:54.806Z,46.20
2018-09-24T16:08:27.813Z,46.20
2018-09-24T16:11:00.952Z,46.40
2018-09-24T16:13:34.033Z,46.90
2018-09-24T16:16:07.058Z,47.20
2018-09-24T16:18:40.202Z,47.60
2018-09-24T16:21:13.424Z,47.70
2018-09-24T16:23:46.600Z,48.40
2018-09-24T16:26:19.828Z,48.70
2018-09-24T16:28:52.878Z,49.80
2018-09-24T16:31:26.001Z,49.30
2018-09-24T16:33:59.019Z,48.30
2018-09-24T16:36:32.149Z,48.70
2018-09-24T16:39:05.304Z,48.70
2018-09-24T16:41:38.240Z,49.00
2018-09-24T16:44:11.546Z,49.00
2018-09-24T16:46:44.597Z,49.00
2018-09-24T16:49:17.696Z,50.10
2018-09-24T16:51:50.928Z,49.60
2018-09-24T16:54:24.121Z,49.90
2018-09-24T16:56:57.172Z,50.00
2018-09-24T16:59:30.207Z,50.60
2018-09-24T17:02:03.363Z,51.40
2018-09-24T17:04:36.599Z,51.10
2018-09-24T17:07:09.567Z,51.30
2018-09-24T17:09:42.731Z,50.80
2018-09-24T17:12:15.917Z,51.90
2018-09-24T17:14:49.049Z,50.90
2018-09-24T17:17:26.238Z,51.80
2018-09-24T17:19:59.414Z,51.60
2018-09-24T17:22:34.778Z,52.10
2018-09-24T17:25:12.093Z,51.80
2018-09-24T17:27:51.001Z,52.20
2018-09-24T17:30:25.952Z,52.20
2018-09-24T17:32:58.890Z,52.30
2018-09-24T17:35:32.110Z,52.80
2018-09-24T17:38:05.239Z,52.80
2018-09-24T17:40:38.499Z,53.10
2018-09-24T17:43:11.489Z,53.10
2018-09-24T17:45:44.524Z,53.30
2018-09-24T17:48:17.987Z,53.70
2018-09-24T17:50:51.060Z,54.10
2018-09-24T17:53:24.212Z,54.30
2018-09-24T17:55:57.306Z,54.30
2018-09-24T17:58:30.376Z,54.70
2018-09-24T18:01:03.425Z,54.70
2018-09-24T18:03:36.398Z,55.10
2018-09-24T18:06:09.470Z,55.50
2018-09-24T18:08:42.636Z,55.80
2018-09-24T18:11:15.692Z,56.20
2018-09-24T18:13:48.667Z,56.40
2018-09-24T18:16:21.801Z,56.40
2018-09-24T18:18:55.097Z,56.30
2018-09-24T18:21:28.136Z,56.30
2018-09-24T18:24:01.124Z,56.30
2018-09-24T18:26:34.085Z,56.60
2018-09-24T18:29:07.235Z,57.20
2018-09-24T18:31:40.713Z,57.20
2018-09-24T18:34:15.059Z,56.80
2018-09-24T18:36:48.620Z,56.90
2018-09-24T18:39:22.223Z,57.70
2018-09-24T18:41:55.373Z,57.30
2018-09-24T18:44:28.390Z,60.00
2018-09-24T18:47:01.444Z,61.10
2018-09-24T18:49:34.688Z,61.70
2018-09-24T18:52:07.735Z,62.30
2018-09-24T18:54:40.725Z,63.90
2018-09-24T18:57:13.879Z,64.80
2018-09-24T18:59:46.980Z,65.70
2018-09-24T19:02:20.043Z,65.80
2018-09-24T19:04:53.285Z,66.90
2018-09-24T19:07:26.421Z,67.10
2018-09-24T19:09:59.626Z,67.40
2018-09-24T19:12:32.740Z,68.20
2018-09-24T19:15:06.355Z,68.90
2018-09-24T19:17:39.322Z,68.70
2018-09-24T19:20:12.535Z,69.60
2018-09-24T19:22:46.444Z,69.00
2018-09-24T19:25:19.491Z,69.60
2018-09-24T19:27:54.836Z,69.60
2018-09-24T19:30:28.217Z,69.60
2018-09-24T19:33:03.092Z,69.60
2018-09-24T19:35:36.630Z,69.70
2018-09-24T19:38:10.342Z,69.80
2018-09-24T19:40:44.046Z,69.70
2018-09-24T19:43:19.722Z,69.80
2018-09-24T19:45:52.993Z,69.80
2018-09-24T19:48:25.875Z,70.30
2018-09-24T19:50:58.995Z,70.20
2018-09-24T19:53:32.210Z,70.60
2018-09-24T19:56:05.406Z,70.20
2018-09-24T19:58:39.543Z,70.60
2018-09-24T20:01:12.587Z,70.60
2018-09-24T20:03:45.671Z,70.60
2018-09-24T20:06:18.918Z,71.00
2018-09-24T20:08:51.982Z,69.50
2018-09-24T20:11:26.293Z,70.20
2018-09-24T20:13:59.347Z,70.60
2018-09-24T20:16:32.834Z,71.30
2018-09-24T20:19:05.956Z,71.40
2018-09-24T20:21:39.186Z,71.40
2018-09-24T20:24:14.388Z,71.90
2018-09-24T20:26:51.361Z,72.40
2018-09-24T20:29:24.454Z,73.10
2018-09-24T20:31:57.503Z,73.70
2018-09-24T20:34:30.572Z,74.30
2018-09-24T20:37:03.541Z,74.50
2018-09-24T20:39:36.652Z,74.70
2018-09-24T20:42:09.682Z,74.80
2018-09-24T20:44:42.781Z,74.70
2018-09-24T20:47:16.002Z,74.90
2018-09-24T20:49:49.037Z,74.80
2018-09-24T20:52:21.994Z,75.10
2018-09-24T20:54:56.008Z,75.10
2018-09-24T20:57:29.893Z,75.00
2018-09-24T21:00:03.046Z,75.40
2018-09-24T21:02:36.219Z,75.80
2018-09-24T21:05:10.238Z,75.70
2018-09-24T21:07:43.292Z,75.50
2018-09-24T21:10:16.378Z,75.70
2018-09-24T21:12:49.365Z,76.60
2018-09-24T21:15:22.581Z,75.60
2018-09-24T21:17:55.758Z,76.00
2018-09-24T21:20:28.756Z,75.90
2018-09-24T21:23:01.844Z,76.50
2018-09-24T21:25:34.968Z,76.90
2018-09-24T21:28:07.953Z,77.30
2018-09-24T21:30:40.919Z,77.60
2018-09-24T21:33:13.920Z,77.60
2018-09-24T21:35:47.016Z,77.70
2018-09-24T21:38:19.994Z,77.60
2018-09-24T21:40:53.090Z,77.80
2018-09-24T21:43:26.098Z,77.60
2018-09-24T21:45:59.078Z,77.40
2018-09-24T21:48:32.046Z,77.10
2018-09-24T21:51:05.031Z,77.30
2018-09-24T21:53:37.999Z,77.40
2018-09-24T21:56:11.387Z,77.50
2018-09-24T21:58:44.406Z,77.50
2018-09-24T22:01:24.021Z,77.50
2018-09-24T22:03:57.020Z,77.20
2018-09-24T22:06:30.205Z,77.40
2018-09-24T22:09:03.348Z,77.30
2018-09-24T22:11:36.525Z,77.50
2018-09-24T22:14:09.473Z,77.30
2018-09-24T22:16:42.411Z,76.00
2018-09-24T22:19:15.640Z,75.90
2018-09-24T22:21:48.818Z,75.70
2018-09-24T22:24:21.901Z,75.50
2018-09-24T22:26:54.819Z,75.80
2018-09-24T22:29:27.832Z,77.60
2018-09-24T22:32:01.001Z,78.00
2018-09-24T22:34:33.966Z,77.90
2018-09-24T22:37:07.118Z,77.80
2018-09-24T22:39:40.352Z,76.90
2018-09-24T22:42:13.293Z,77.10
2018-09-24T22:44:46.491Z,76.80
2018-09-24T22:47:19.704Z,77.10
2018-09-24T22:49:52.688Z,77.10
2018-09-24T22:52:25.804Z,77.20
2018-09-24T22:54:58.801Z,77.30
2018-09-24T22:57:31.937Z,77.20
2018-09-24T23:00:05.182Z,77.50
2018-09-24T23:02:38.086Z,77.70
2018-09-24T23:05:11.056Z,77.80
2018-09-24T23:07:45.127Z,77.70
2018-09-24T23:10:18.338Z,77.60
2018-09-24T23:12:51.337Z,77.60
2018-09-24T23:15:25.443Z,77.80
2018-09-24T23:17:58.476Z,77.50
2018-09-24T23:20:31.356Z,78.70
2018-09-24T23:23:04.448Z,78.90
2018-09-24T23:25:37.452Z,78.70
2018-09-24T23:28:10.628Z,78.50
2018-09-24T23:30:43.629Z,78.60
2018-09-24T23:33:16.607Z,78.50
2018-09-24T23:35:49.740Z,78.70
2018-09-24T23:38:22.788Z,78.80
2018-09-24T23:40:55.939Z,78.50
2018-09-24T23:43:28.877Z,78.60
2018-09-24T23:46:01.974Z,78.80
2018-09-24T23:48:35.193Z,78.90
2018-09-24T23:51:08.226Z,79.00
2018-09-24T23:53:42.351Z,79.20
2018-09-24T23:56:15.436Z,79.40
2018-09-24T23:58:49.489Z,79.60
